createdAt,value
2018-08-22T00:00:31.878Z,8.50
2018-08-22T00:03:00.882Z,8.38
2018-08-22T00:05:29.926Z,9.15
2018-08-22T00:07:59.192Z,8.88
2018-08-22T00:10:28.236Z,8.75
2018-08-22T00:12:57.242Z,8.93
2018-08-22T00:15:25.810Z,9.83
2018-08-22T00:17:54.889Z,8.65
2018-08-22T00:20:23.903Z,8.90
2018-08-22T00:22:53.027Z,8.53
2018-08-22T00:25:22.100Z,8.48
2018-08-22T00:27:51.273Z,9.30
2018-08-22T00:30:20.328Z,8.88
2018-08-22T00:32:49.986Z,9.28
2018-08-22T00:35:19.022Z,8.90
2018-08-22T00:37:47.978Z,9.00
2018-08-22T00:40:17.008Z,8.63
2018-08-22T00:42:46.074Z,9.70
2018-08-22T00:45:15.188Z,10.93
2018-08-22T00:47:44.346Z,10.58
2018-08-22T00:50:13.448Z,10.00
2018-08-22T00:52:42.884Z,9.88
2018-08-22T00:55:11.914Z,9.60
2018-08-22T00:57:40.924Z,9.55
2018-08-22T01:00:10.127Z,9.20
2018-08-22T01:02:39.203Z,9.93
2018-08-22T01:05:07.769Z,9.47
2018-08-22T01:07:36.245Z,9.50
2018-08-22T01:10:05.314Z,9.33
2018-08-22T01:12:33.817Z,9.13
2018-08-22T01:15:02.277Z,9.43
2018-08-22T01:17:30.724Z,9.55
2018-08-22T01:19:59.185Z,10.17
2018-08-22T01:22:27.657Z,8.80
2018-08-22T01:24:56.377Z,9.93
2018-08-22T01:27:25.337Z,9.13
2018-08-22T01:29:55.105Z,9.50
2018-08-22T01:32:24.119Z,9.20
2018-08-22T01:34:53.463Z,8.75
2018-08-22T01:37:22.410Z,8.88
2018-08-22T01:39:50.903Z,8.70
2018-08-22T01:42:19.518Z,8.67
2018-08-22T01:44:48.628Z,9.03
2018-08-22T01:47:17.891Z,8.75
2018-08-22T01:49:46.326Z,9.27
2018-08-22T01:52:14.836Z,8.67
2018-08-22T01:54:43.815Z,9.33
2018-08-22T01:57:12.850Z,9.20
2018-08-22T01:59:41.285Z,8.90
2018-08-22T02:02:09.721Z,8.93
2018-08-22T02:04:38.843Z,9.50
2018-08-22T02:07:07.305Z,9.57
2018-08-22T02:09:36.389Z,9.73
2018-08-22T02:12:05.003Z,9.63
2018-08-22T02:14:33.420Z,9.37
2018-08-22T02:17:02.509Z,9.85
2018-08-22T02:19:30.978Z,9.33
2018-08-22T02:21:59.436Z,9.50
2018-08-22T02:24:27.915Z,9.70
2018-08-22T02:26:56.388Z,9.43
2018-08-22T02:29:24.794Z,9.53
2018-08-22T02:31:53.228Z,9.23
2018-08-22T02:34:21.734Z,9.20
2018-08-22T02:36:51.008Z,9.98
2018-08-22T02:39:19.472Z,9.37
2018-08-22T02:41:48.009Z,10.40
2018-08-22T02:44:16.577Z,9.93
2018-08-22T02:46:45.017Z,10.00
2018-08-22T02:49:13.528Z,10.47
2018-08-22T02:51:42.531Z,10.37
2018-08-22T02:54:11.051Z,9.97
2018-08-22T02:56:39.700Z,9.63
2018-08-22T02:59:08.101Z,8.90
2018-08-22T03:01:36.656Z,9.90
2018-08-22T03:04:05.650Z,9.93
2018-08-22T03:06:34.132Z,9.17
2018-08-22T03:09:02.606Z,9.70
2018-08-22T03:11:31.091Z,9.30
2018-08-22T03:14:00.074Z,10.25
2018-08-22T03:16:28.667Z,9.57
2018-08-22T03:18:57.757Z,10.63
2018-08-22T03:21:26.349Z,9.47
2018-08-22T03:23:55.006Z,9.40
2018-08-22T03:26:23.656Z,9.97
2018-08-22T03:28:52.910Z,9.98
2018-08-22T03:31:21.415Z,10.00
2018-08-22T03:33:50.019Z,10.17
2018-08-22T03:36:18.467Z,10.33
2018-08-22T03:38:46.882Z,10.20
2018-08-22T03:41:15.410Z,9.73
2018-08-22T03:43:44.174Z,9.63
2018-08-22T03:46:13.166Z,10.08
2018-08-22T03:48:41.749Z,10.60
2018-08-22T03:51:10.190Z,9.57
2018-08-22T03:53:38.700Z,9.87
2018-08-22T03:56:07.243Z,10.27
2018-08-22T03:58:35.798Z,9.97
2018-08-22T04:01:04.253Z,10.97
2018-08-22T04:03:32.763Z,9.80
2018-08-22T04:06:01.244Z,10.07
2018-08-22T04:08:29.687Z,10.17
2018-08-22T04:10:58.147Z,12.33
2018-08-22T04:13:26.575Z,10.87
2018-08-22T04:15:55.088Z,11.33
2018-08-22T04:18:23.595Z,10.23
2018-08-22T04:20:52.120Z,11.07
2018-08-22T04:23:20.580Z,10.60
2018-08-22T04:25:49.040Z,10.13
2018-08-22T04:28:17.559Z,10.73
2018-08-22T04:30:45.971Z,12.33
2018-08-22T04:33:14.419Z,13.93
2018-08-22T04:35:42.859Z,11.80
2018-08-22T04:38:11.379Z,11.10
2018-08-22T04:40:39.805Z,12.67
2018-08-22T04:43:08.304Z,12.00
2018-08-22T04:45:36.920Z,10.07
2018-08-22T04:48:05.412Z,10.83
2018-08-22T04:50:34.087Z,10.73
2018-08-22T04:53:02.540Z,11.80
2018-08-22T04:55:30.994Z,11.20
2018-08-22T04:57:59.454Z,11.23
2018-08-22T05:00:28.010Z,12.67
2018-08-22T05:02:56.496Z,11.83
2018-08-22T05:05:25.059Z,12.00
2018-08-22T05:07:53.544Z,11.30
2018-08-22T05:10:21.973Z,12.03
2018-08-22T05:12:50.422Z,11.37
2018-08-22T05:15:18.909Z,11.20
2018-08-22T05:17:47.334Z,12.03
2018-08-22T05:20:15.814Z,12.33
2018-08-22T05:22:44.270Z,12.10
2018-08-22T05:25:12.736Z,12.37
2018-08-22T05:27:41.803Z,12.70
2018-08-22T05:30:10.884Z,11.88
2018-08-22T05:32:39.446Z,13.00
2018-08-22T05:35:07.960Z,13.57
2018-08-22T05:37:36.445Z,12.67
2018-08-22T05:40:04.897Z,12.23
2018-08-22T05:42:33.399Z,12.80
2018-08-22T05:45:01.923Z,13.30
2018-08-22T05:47:30.987Z,12.90
2018-08-22T05:49:59.562Z,13.73
2018-08-22T05:52:27.971Z,13.30
2018-08-22T05:54:56.428Z,14.10
2018-08-22T05:57:24.932Z,13.60
2018-08-22T05:59:53.582Z,13.10
2018-08-22T06:02:22.062Z,12.50
2018-08-22T06:04:50.560Z,12.80
2018-08-22T06:07:19.141Z,13.43
2018-08-22T06:09:47.707Z,12.47
2018-08-22T06:12:16.144Z,13.63
2018-08-22T06:14:44.679Z,12.60
2018-08-22T06:17:13.132Z,13.63
2018-08-22T06:19:41.643Z,13.60
2018-08-22T06:22:10.111Z,14.27
2018-08-22T06:24:38.797Z,13.87
2018-08-22T06:27:07.275Z,13.27
2018-08-22T06:29:36.335Z,14.53
2018-08-22T06:32:04.807Z,13.70
2018-08-22T06:34:33.275Z,13.63
2018-08-22T06:37:01.918Z,13.43
2018-08-22T06:39:30.379Z,12.90
2018-08-22T06:41:59.419Z,13.28
2018-08-22T06:44:27.875Z,13.20
2018-08-22T06:46:56.956Z,13.32
2018-08-22T06:49:25.410Z,13.77
2018-08-22T06:51:54.021Z,13.40
2018-08-22T06:54:22.472Z,13.23
2018-08-22T06:56:51.580Z,13.95
2018-08-22T06:59:20.662Z,13.83
2018-08-22T07:01:49.786Z,12.60
2018-08-22T07:04:18.884Z,13.05
2018-08-22T07:06:47.875Z,12.03
2018-08-22T07:09:17.071Z,12.00
2018-08-22T07:11:46.057Z,13.30
2018-08-22T07:14:15.128Z,13.15
2018-08-22T07:16:44.255Z,13.70
2018-08-22T07:19:13.609Z,13.00
2018-08-22T07:21:42.793Z,12.28
2018-08-22T07:24:11.847Z,12.20
2018-08-22T07:26:40.894Z,12.70
2018-08-22T07:29:10.065Z,12.47
2018-08-22T07:31:39.070Z,11.73
2018-08-22T07:34:08.131Z,13.93
2018-08-22T07:36:37.126Z,12.43
2018-08-22T07:39:09.379Z,11.53
2018-08-22T07:41:38.428Z,11.00
2018-08-22T07:44:08.155Z,11.08
2018-08-22T07:46:37.280Z,10.75
2018-08-22T07:49:06.353Z,10.15
2018-08-22T07:51:35.398Z,11.50
2018-08-22T07:54:04.460Z,10.70
2018-08-22T07:56:33.556Z,9.80
2018-08-22T07:59:11.948Z,10.63
2018-08-22T08:01:41.080Z,9.68
2018-08-22T08:04:12.398Z,9.33
2018-08-22T08:06:41.914Z,9.93
2018-08-22T08:09:13.343Z,9.53
2018-08-22T08:11:42.557Z,8.98
2018-08-22T08:14:11.761Z,9.18
2018-08-22T08:16:41.030Z,9.85
2018-08-22T08:19:10.006Z,9.33
2018-08-22T08:21:39.141Z,9.98
2018-08-22T08:24:08.457Z,8.48
2018-08-22T08:26:37.492Z,10.25
2018-08-22T08:29:13.296Z,9.98
2018-08-22T08:31:42.372Z,9.95
2018-08-22T08:34:11.476Z,10.18
2018-08-22T08:36:40.616Z,9.30
2018-08-22T08:39:10.797Z,9.83
2018-08-22T08:41:40.030Z,10.58
2018-08-22T08:44:15.890Z,10.05
2018-08-22T08:46:45.071Z,9.50
2018-08-22T08:49:14.146Z,8.93
2018-08-22T08:51:54.827Z,8.65
2018-08-22T08:54:23.966Z,9.38
2018-08-22T08:56:53.130Z,10.70
2018-08-22T08:59:22.372Z,10.28
2018-08-22T09:01:51.492Z,9.80
2018-08-22T09:04:20.658Z,9.23
2018-08-22T09:06:50.108Z,8.88
2018-08-22T09:09:19.250Z,10.08
2018-08-22T09:11:54.380Z,9.28
2018-08-22T09:14:23.554Z,10.80
2018-08-22T09:16:52.626Z,8.90
2018-08-22T09:19:21.724Z,9.15
2018-08-22T09:21:50.766Z,8.43
2018-08-22T09:24:19.798Z,8.15
2018-08-22T09:26:48.957Z,8.35
2018-08-22T09:29:18.023Z,8.90
2018-08-22T09:31:47.008Z,8.93
2018-08-22T09:34:16.010Z,7.80
2018-08-22T09:36:45.030Z,8.30
2018-08-22T09:39:14.483Z,7.95
2018-08-22T09:41:43.776Z,8.43
2018-08-22T09:44:13.000Z,8.75
2018-08-22T09:46:42.220Z,7.70
2018-08-22T09:49:11.416Z,7.72
2018-08-22T09:51:40.378Z,8.23
2018-08-22T09:54:09.620Z,8.98
2018-08-22T09:56:38.608Z,7.62
2018-08-22T09:59:07.613Z,7.95
2018-08-22T10:01:41.710Z,8.63
2018-08-22T10:04:10.850Z,12.03
2018-08-22T10:06:41.278Z,8.60
2018-08-22T10:09:12.737Z,8.80
2018-08-22T10:11:41.840Z,7.97
2018-08-22T10:14:10.995Z,8.03
2018-08-22T10:16:39.990Z,8.40
2018-08-22T10:19:09.036Z,7.75
2018-08-22T10:21:38.014Z,8.13
2018-08-22T10:24:07.192Z,8.28
2018-08-22T10:26:36.273Z,8.28
2018-08-22T10:29:05.640Z,7.40
2018-08-22T10:31:34.716Z,8.03
2018-08-22T10:34:03.692Z,7.50
2018-08-22T10:36:32.756Z,6.87
2018-08-22T10:39:01.751Z,7.20
2018-08-22T10:41:30.736Z,7.70
2018-08-22T10:43:59.762Z,7.10
2018-08-22T10:46:28.782Z,8.08
2018-08-22T10:48:57.738Z,8.38
2018-08-22T10:51:26.804Z,8.05
2018-08-22T10:53:55.940Z,8.80
2018-08-22T10:56:25.084Z,11.33
2018-08-22T10:58:54.227Z,9.95
2018-08-22T11:01:23.241Z,10.40
2018-08-22T11:03:52.456Z,8.05
2018-08-22T11:06:21.439Z,8.48
2018-08-22T11:08:50.517Z,8.78
2018-08-22T11:11:19.631Z,8.10
2018-08-22T11:13:48.656Z,7.25
2018-08-22T11:16:17.603Z,7.67
2018-08-22T11:18:46.603Z,7.72
2018-08-22T11:21:26.800Z,8.25
2018-08-22T11:26:28.551Z,7.90
2018-08-22T11:29:08.885Z,8.58
2018-08-22T11:31:49.291Z,7.65
2018-08-22T11:34:29.744Z,8.98
2018-08-22T11:37:00.413Z,8.10
2018-08-22T11:39:29.596Z,9.20
2018-08-22T11:41:58.748Z,8.35
2018-08-22T11:44:27.778Z,7.95
2018-08-22T11:46:56.766Z,8.80
2018-08-22T11:49:25.801Z,8.13
2018-08-22T11:51:54.891Z,9.00
2018-08-22T11:54:24.095Z,8.25
2018-08-22T11:56:53.070Z,8.48
2018-08-22T11:59:22.039Z,8.00
2018-08-22T12:01:51.393Z,32.13
2018-08-22T12:04:20.910Z,87.60
2018-08-22T12:06:50.271Z,148.05
2018-08-22T12:09:19.311Z,27.15
2018-08-22T12:11:48.384Z,21.97
2018-08-22T12:14:17.477Z,25.43
2018-08-22T12:16:46.461Z,16.87
2018-08-22T12:19:15.487Z,14.90
2018-08-22T12:21:44.535Z,16.05
2018-08-22T12:24:13.555Z,11.85
2018-08-22T12:26:42.611Z,11.12
2018-08-22T12:29:12.027Z,9.80
2018-08-22T12:31:41.078Z,9.63
2018-08-22T12:34:10.037Z,8.85
2018-08-22T12:36:39.042Z,7.83
2018-08-22T12:39:08.229Z,8.35
2018-08-22T12:41:37.326Z,7.55
2018-08-22T12:44:06.346Z,8.00
2018-08-22T12:46:35.438Z,8.50
2018-08-22T12:49:04.445Z,7.92
2018-08-22T12:51:33.494Z,9.18
2018-08-22T12:54:02.542Z,8.05
2018-08-22T12:56:31.596Z,7.50
2018-08-22T12:59:00.666Z,7.83
2018-08-22T13:01:29.682Z,7.83
2018-08-22T13:03:58.764Z,7.87
2018-08-22T13:06:27.730Z,9.40
2018-08-22T13:08:56.779Z,8.58
2018-08-22T13:11:26.104Z,8.53
2018-08-22T13:13:55.273Z,7.87
2018-08-22T13:16:24.240Z,8.23
2018-08-22T13:18:53.295Z,7.87
2018-08-22T13:21:22.270Z,7.85
2018-08-22T13:23:51.221Z,8.20
2018-08-22T13:26:20.211Z,8.28
2018-08-22T13:28:49.159Z,7.87
2018-08-22T13:31:18.235Z,7.92
2018-08-22T13:33:47.301Z,8.00
2018-08-22T13:36:16.323Z,8.10
2018-08-22T13:38:45.526Z,7.65
2018-08-22T13:41:14.514Z,7.67
2018-08-22T13:43:43.648Z,7.12
2018-08-22T13:46:12.610Z,6.87
2018-08-22T13:48:41.688Z,7.60
2018-08-22T13:51:10.652Z,7.28
2018-08-22T13:53:39.717Z,7.30
2018-08-22T13:56:08.797Z,7.75
2018-08-22T13:58:38.092Z,7.53
2018-08-22T14:01:07.246Z,7.08
2018-08-22T14:03:36.236Z,7.55
2018-08-22T14:06:05.294Z,7.78
2018-08-22T14:08:34.294Z,7.80
2018-08-22T14:11:03.490Z,7.33
2018-08-22T14:13:32.482Z,7.87
2018-08-22T14:16:01.658Z,7.65
2018-08-22T14:18:30.715Z,7.55
2018-08-22T14:20:59.744Z,7.12
2018-08-22T14:23:28.754Z,7.20
2018-08-22T14:25:57.764Z,7.33
2018-08-22T14:28:26.784Z,7.62
2018-08-22T14:30:55.791Z,7.05
2018-08-22T14:33:24.744Z,7.08
2018-08-22T14:35:53.757Z,6.92
2018-08-22T14:38:22.759Z,7.33
2018-08-22T14:40:51.744Z,6.70
2018-08-22T14:43:20.871Z,7.20
2018-08-22T14:45:49.830Z,7.40
2018-08-22T14:48:18.807Z,6.55
2018-08-22T14:50:47.842Z,7.25
2018-08-22T14:53:16.802Z,6.53
2018-08-22T14:55:45.955Z,7.95
2018-08-22T14:58:15.045Z,7.30
2018-08-22T15:00:44.058Z,7.05
2018-08-22T15:03:13.301Z,7.97
2018-08-22T15:05:42.218Z,7.03
2018-08-22T15:08:11.216Z,6.78
2018-08-22T15:10:40.228Z,7.00
2018-08-22T15:13:09.306Z,6.75
2018-08-22T15:15:38.498Z,6.78
2018-08-22T15:18:07.479Z,6.90
2018-08-22T15:20:36.538Z,7.17
2018-08-22T15:23:05.710Z,6.47
2018-08-22T15:25:34.890Z,7.22
2018-08-22T15:28:03.926Z,7.22
2018-08-22T15:30:32.898Z,7.08
2018-08-22T15:33:01.884Z,6.40
2018-08-22T15:35:30.844Z,7.55
2018-08-22T15:37:59.845Z,6.95
2018-08-22T15:40:29.115Z,7.37
2018-08-22T15:42:58.337Z,8.93
2018-08-22T15:45:27.484Z,7.12
2018-08-22T15:47:56.494Z,7.60
2018-08-22T15:50:25.538Z,7.10
2018-08-22T15:52:54.588Z,6.78
2018-08-22T15:55:23.726Z,6.35
2018-08-22T15:57:57.314Z,7.25
2018-08-22T16:00:38.696Z,6.92
2018-08-22T16:03:08.740Z,7.10
2018-08-22T16:05:38.630Z,7.08
2018-08-22T16:08:08.048Z,6.87
2018-08-22T16:10:37.066Z,6.62
2018-08-22T16:13:09.910Z,7.03
2018-08-22T16:15:38.919Z,7.90
2018-08-22T16:18:09.150Z,8.70
2018-08-22T16:20:46.941Z,7.33
2018-08-22T16:23:15.988Z,6.67
2018-08-22T16:25:46.554Z,7.70
2018-08-22T16:28:15.600Z,7.47
2018-08-22T16:30:56.691Z,6.85
2018-08-22T16:33:14.177Z,6.80
2018-08-22T16:35:43.183Z,6.83
2018-08-22T16:38:13.289Z,6.42
2018-08-22T16:40:43.626Z,6.30
2018-08-22T16:43:12.635Z,6.83
2018-08-22T16:45:46.994Z,7.22
2018-08-22T16:48:18.989Z,6.50
2018-08-22T16:50:48.599Z,6.97
2018-08-22T16:53:17.585Z,6.15
2018-08-22T16:55:47.783Z,7.03
2018-08-22T16:58:19.887Z,7.15
2018-08-22T17:00:50.100Z,7.53
2018-08-22T17:03:19.211Z,6.92
2018-08-22T17:05:48.395Z,6.47
2018-08-22T17:08:17.385Z,6.47
2018-08-22T17:10:57.462Z,7.62
2018-08-22T17:13:33.783Z,8.63
2018-08-22T17:16:02.772Z,6.95
2018-08-22T17:18:31.992Z,6.78
2018-08-22T17:21:01.160Z,7.00
2018-08-22T17:23:30.219Z,7.87
2018-08-22T17:25:59.484Z,7.33
2018-08-22T17:28:34.715Z,7.17
2018-08-22T17:31:03.945Z,6.90
2018-08-22T17:33:42.501Z,7.12
2018-08-22T17:36:12.432Z,8.30
2018-08-22T17:38:44.450Z,7.72
2018-08-22T17:41:13.819Z,7.03
2018-08-22T17:43:55.963Z,7.30
2018-08-22T17:46:28.838Z,6.65
2018-08-22T17:48:58.206Z,7.20
2018-08-22T17:51:27.399Z,7.17
2018-08-22T17:53:56.558Z,6.92
2018-08-22T17:56:27.279Z,6.90
2018-08-22T17:58:57.224Z,6.58
2018-08-22T18:01:26.257Z,7.10
2018-08-22T18:03:56.594Z,6.75
2018-08-22T18:06:26.054Z,7.50
2018-08-22T18:08:55.388Z,6.60
2018-08-22T18:11:25.494Z,6.70
2018-08-22T18:13:57.675Z,6.90
2018-08-22T18:16:27.138Z,6.67
2018-08-22T18:18:56.128Z,7.15
2018-08-22T18:21:31.633Z,8.20
2018-08-22T18:24:00.798Z,7.50
2018-08-22T18:26:29.927Z,7.47
2018-08-22T18:28:59.053Z,7.90
2018-08-22T18:31:28.099Z,7.47
2018-08-22T18:33:58.868Z,8.13
2018-08-22T18:36:28.955Z,7.60
2018-08-22T18:39:06.811Z,8.20
2018-08-22T22:31:48.362Z,12.73
2018-08-22T22:34:17.416Z,11.78
2018-08-22T22:36:46.450Z,12.33
2018-08-22T22:39:46.995Z,12.03
2018-08-22T22:42:21.333Z,12.23
2018-08-22T22:44:51.761Z,12.85
2018-08-22T22:47:27.499Z,12.05
2018-08-22T22:49:57.092Z,12.03
2018-08-22T22:52:29.595Z,12.55
2018-08-22T22:54:59.907Z,12.13
2018-08-22T22:57:30.783Z,11.05
2018-08-22T23:00:00.435Z,11.90
2018-08-22T23:02:30.499Z,10.98
2018-08-22T23:05:00.175Z,10.65
2018-08-22T23:07:31.227Z,10.50
2018-08-22T23:10:03.592Z,11.38
2018-08-22T23:12:48.280Z,10.30
2018-08-22T23:15:24.979Z,13.93
2018-08-22T23:17:55.764Z,11.53
2018-08-22T23:20:30.534Z,10.40
2018-08-22T23:22:59.647Z,10.93
2018-08-22T23:25:29.001Z,10.75
2018-08-22T23:27:58.221Z,9.60
2018-08-22T23:30:31.662Z,9.70
2018-08-22T23:33:00.772Z,10.20
2018-08-22T23:35:32.186Z,10.30
2018-08-22T23:38:02.590Z,10.70
2018-08-22T23:40:33.586Z,10.05
2018-08-22T23:43:02.595Z,9.73
2018-08-22T23:45:31.704Z,9.73
2018-08-22T23:48:00.728Z,10.75
2018-08-22T23:50:48.486Z,10.08
2018-08-22T23:53:17.689Z,10.13
2018-08-22T23:55:46.719Z,9.48
2018-08-22T23:58:15.789Z,10.32
